createdAt,value
2018-09-03T00:00:47.683Z,995.08
2018-09-03T00:01:57.814Z,995.12
2018-09-03T00:03:07.670Z,995.12
2018-09-03T00:04:17.531Z,995.14
2018-09-03T00:05:27.659Z,995.15
2018-09-03T00:06:37.252Z,995.08
2018-09-03T00:07:46.832Z,995.09
2018-09-03T00:08:56.957Z,995.11
2018-09-03T00:10:06.592Z,995.11
2018-09-03T00:11:16.717Z,995.09
2018-09-03T00:12:26.838Z,995.11
2018-09-03T00:13:35.869Z,995.08
2018-09-03T00:14:45.719Z,995.07
2018-09-03T00:15:55.618Z,995.1
2018-09-03T00:17:05.744Z,995.11
2018-09-03T00:18:15.322Z,995.07
2018-09-03T00:19:25.455Z,995.06
2018-09-03T00:20:35.581Z,995.07
2018-09-03T00:21:45.427Z,995.05
2018-09-03T00:22:55.548Z,995.07
2018-09-03T00:24:05.672Z,995.07
2018-09-03T00:25:15.248Z,995.05
2018-09-03T00:26:25.126Z,995.06
2018-09-03T00:27:34.700Z,995.02
2018-09-03T00:28:44.549Z,995.01
2018-09-03T00:29:54.676Z,995.02
2018-09-03T00:31:04.528Z,994.99
2018-09-03T00:32:14.382Z,995.01
2018-09-03T00:33:24.290Z,995
2018-09-03T00:34:34.413Z,995
2018-09-03T00:35:43.991Z,995.04
2018-09-03T00:36:54.120Z,995.06
2018-09-03T00:38:04.246Z,995.07
2018-09-03T00:39:14.367Z,995.05
2018-09-03T00:40:24.221Z,995.02
2018-09-03T00:41:34.073Z,995.05
2018-09-03T00:42:44.200Z,995.05
2018-09-03T00:43:54.047Z,995.04
2018-09-03T00:45:04.229Z,995.06
2018-09-03T00:46:14.364Z,995.06
2018-09-03T00:47:24.215Z,995.07
2018-09-03T00:48:34.337Z,995.12
2018-09-03T00:49:44.464Z,995.12
2018-09-03T00:50:54.692Z,995.08
2018-09-03T00:52:04.817Z,995.1
2018-09-03T00:53:14.717Z,995.09
2018-09-03T00:54:24.841Z,995.06
2018-09-03T00:55:34.701Z,995.09
2018-09-03T00:56:44.602Z,995.1
2018-09-03T00:57:54.776Z,995.06
2018-09-03T00:59:04.899Z,995.06
2018-09-03T01:00:14.750Z,995.07
2018-09-03T01:01:24.878Z,995.05
2018-09-03T01:02:34.830Z,995.05
2018-09-03T01:03:44.958Z,995.02
2018-09-03T01:04:54.817Z,995.06
2018-09-03T01:06:03.846Z,995.03
2018-09-03T01:07:13.420Z,995.02
2018-09-03T01:08:23.370Z,995
2018-09-03T01:09:33.501Z,995
2018-09-03T01:10:43.636Z,995.02
2018-09-03T01:11:53.771Z,994.99
2018-09-03T01:13:03.624Z,994.99
2018-09-03T01:14:13.525Z,994.97
2018-09-03T01:15:23.649Z,994.98
2018-09-03T01:16:33.515Z,994.97
2018-09-03T01:17:43.371Z,995.01
2018-09-03T01:18:53.505Z,995
2018-09-03T01:20:03.691Z,994.99
2018-09-03T01:21:13.547Z,994.97
2018-09-03T01:22:23.668Z,994.97
2018-09-03T01:23:33.794Z,994.96
2018-09-03T01:24:43.949Z,994.95
2018-09-03T01:25:54.130Z,994.97
2018-09-03T01:27:03.981Z,994.94
2018-09-03T01:28:13.847Z,994.99
2018-09-03T01:29:23.973Z,994.96
2018-09-03T01:30:34.451Z,994.97
2018-09-03T01:31:44.639Z,994.96
2018-09-03T01:32:54.493Z,994.98
2018-09-03T01:34:04.623Z,994.95
2018-09-03T01:35:14.478Z,994.96
2018-09-03T01:36:24.604Z,994.95
2018-09-03T01:37:34.188Z,994.96
2018-09-03T01:38:44.312Z,995.02
2018-09-03T01:39:54.439Z,995
2018-09-03T01:41:04.579Z,995.01
2018-09-03T01:42:14.431Z,995.01
2018-09-03T01:43:24.604Z,995.02
2018-09-03T01:44:34.730Z,995
2018-09-03T01:45:44.320Z,995.04
2018-09-03T01:46:54.457Z,995.03
2018-09-03T01:48:04.590Z,994.99
2018-09-03T01:49:14.769Z,994.98
2018-09-03T01:50:24.912Z,994.98
2018-09-03T01:51:34.762Z,994.94
2018-09-03T01:52:44.930Z,994.94
2018-09-03T01:53:54.512Z,994.93
2018-09-03T01:55:04.637Z,994.98
2018-09-03T01:56:14.492Z,994.95
2018-09-03T01:57:24.617Z,994.94
2018-09-03T01:58:34.479Z,994.97
2018-09-03T01:59:44.616Z,994.95
2018-09-03T02:00:54.849Z,994.94
2018-09-03T02:02:04.977Z,994.95
2018-09-03T02:03:14.834Z,994.97
2018-09-03T02:04:24.955Z,994.88
2018-09-03T02:05:34.803Z,994.96
2018-09-03T02:06:44.714Z,994.88
2018-09-03T02:07:54.845Z,994.86
2018-09-03T02:09:04.702Z,994.87
2018-09-03T02:10:14.007Z,994.87
2018-09-03T02:11:23.853Z,994.9
2018-09-03T02:12:34.029Z,994.93
2018-09-03T02:13:44.162Z,994.96
2018-09-03T02:14:54.298Z,994.94
2018-09-03T02:16:04.426Z,994.95
2018-09-03T02:17:14.549Z,994.94
2018-09-03T02:18:24.496Z,994.94
2018-09-03T02:19:34.634Z,994.95
2018-09-03T02:20:44.488Z,994.98
2018-09-03T02:21:54.621Z,994.95
2018-09-03T02:23:04.485Z,994.89
2018-09-03T02:24:14.112Z,994.91
2018-09-03T02:25:24.237Z,994.93
2018-09-03T02:26:34.082Z,994.93
2018-09-03T02:27:43.947Z,994.98
2018-09-03T02:28:54.076Z,994.97
2018-09-03T02:30:03.713Z,994.89
2018-09-03T02:31:13.867Z,994.92
2018-09-03T02:32:24.006Z,994.92
2018-09-03T02:33:34.144Z,994.91
2018-09-03T02:34:43.727Z,994.91
2018-09-03T02:35:53.634Z,994.91
2018-09-03T02:37:03.487Z,994.87
2018-09-03T02:38:13.613Z,994.86
2018-09-03T02:39:23.465Z,994.88
2018-09-03T02:40:33.328Z,994.87
2018-09-03T02:41:43.501Z,994.87
2018-09-03T02:42:53.637Z,994.86
2018-09-03T02:44:03.488Z,994.82
2018-09-03T02:45:13.617Z,994.87
2018-09-03T02:46:23.743Z,994.84
2018-09-03T02:47:33.705Z,994.83
2018-09-03T02:48:43.527Z,994.86
2018-09-03T02:49:53.664Z,994.83
2018-09-03T02:51:03.518Z,994.85
2018-09-03T02:52:13.099Z,994.87
2018-09-03T02:53:22.950Z,994.86
2018-09-03T02:54:33.079Z,994.87
2018-09-03T02:55:43.206Z,994.86
2018-09-03T02:56:53.055Z,994.85
2018-09-03T02:58:03.186Z,994.87
2018-09-03T02:59:13.361Z,994.87
2018-09-03T03:00:23.489Z,994.87
2018-09-03T03:01:33.619Z,994.84
2018-09-03T03:02:43.473Z,994.81
2018-09-03T03:03:53.047Z,994.84
2018-09-03T03:05:02.629Z,994.8
2018-09-03T03:06:12.487Z,994.79
2018-09-03T03:07:22.608Z,994.75
2018-09-03T03:08:32.457Z,994.76
2018-09-03T03:09:42.046Z,994.73
2018-09-03T03:10:51.897Z,994.69
2018-09-03T03:12:01.485Z,994.72
2018-09-03T03:13:11.382Z,994.73
2018-09-03T03:14:21.655Z,994.71
2018-09-03T03:15:31.242Z,994.72
2018-09-03T03:16:41.146Z,994.72
2018-09-03T03:17:51.028Z,994.7
2018-09-03T03:19:01.159Z,994.68
2018-09-03T03:20:11.283Z,994.66
2018-09-03T03:21:20.867Z,994.61
2018-09-03T03:22:31.054Z,994.63
2018-09-03T03:23:40.905Z,994.63
2018-09-03T03:24:50.762Z,994.59
2018-09-03T03:26:00.644Z,994.6
2018-09-03T03:27:10.219Z,994.58
2018-09-03T03:28:19.797Z,994.54
2018-09-03T03:29:29.925Z,994.57
2018-09-03T03:30:39.781Z,994.59
2018-09-03T03:31:49.921Z,994.55
2018-09-03T03:33:00.092Z,994.57
2018-09-03T03:34:10.314Z,994.56
2018-09-03T03:35:20.443Z,994.58
2018-09-03T03:36:30.302Z,994.54
2018-09-03T03:37:40.162Z,994.57
2018-09-03T03:38:50.022Z,994.59
2018-09-03T03:39:59.874Z,994.57
2018-09-03T03:41:10.003Z,994.59
2018-09-03T03:42:20.126Z,994.55
2018-09-03T03:43:30.000Z,994.58
2018-09-03T03:44:40.127Z,994.55
2018-09-03T03:45:50.304Z,994.49
2018-09-03T03:47:00.162Z,994.51
2018-09-03T03:48:10.016Z,994.51
2018-09-03T03:49:20.140Z,994.47
2018-09-03T03:50:29.990Z,994.46
2018-09-03T03:51:39.626Z,994.47
2018-09-03T03:52:49.504Z,994.45
2018-09-03T03:53:59.359Z,994.39
2018-09-03T03:55:08.988Z,994.4
2018-09-03T03:56:19.027Z,994.39
2018-09-03T03:57:28.709Z,994.39
2018-09-03T03:58:38.841Z,994.42
2018-09-03T03:59:48.709Z,994.42
2018-09-03T04:00:58.837Z,994.42
2018-09-03T04:02:08.691Z,994.41
2018-09-03T04:03:18.325Z,994.4
2018-09-03T04:04:28.454Z,994.39
2018-09-03T04:05:38.307Z,994.43
2018-09-03T04:06:48.435Z,994.43
2018-09-03T04:07:58.578Z,994.44
2018-09-03T04:09:08.478Z,994.41
2018-09-03T04:10:18.340Z,994.45
2018-09-03T04:11:28.473Z,994.42
2018-09-03T04:12:38.603Z,994.43
2018-09-03T04:13:48.734Z,994.41
2018-09-03T04:14:58.589Z,994.35
2018-09-03T04:16:08.774Z,994.37
2018-09-03T04:17:18.924Z,994.38
2018-09-03T04:18:29.048Z,994.39
2018-09-03T04:19:39.191Z,994.43
2018-09-03T04:20:49.370Z,994.37
2018-09-03T04:21:59.505Z,994.42
2018-09-03T04:23:09.526Z,994.41
2018-09-03T04:24:20.637Z,994.43
2018-09-03T04:25:30.782Z,994.48
2018-09-03T04:26:40.640Z,994.52
2018-09-03T04:27:50.494Z,994.53
2018-09-03T04:29:00.073Z,994.54
2018-09-03T04:30:09.652Z,994.55
2018-09-03T04:31:19.507Z,994.54
2018-09-03T04:32:29.413Z,994.53
2018-09-03T04:33:39.546Z,994.55
2018-09-03T04:34:49.672Z,994.5
2018-09-03T04:35:59.520Z,994.54
2018-09-03T04:37:09.380Z,994.49
2018-09-03T04:38:19.344Z,994.53
2018-09-03T04:39:28.927Z,994.5
2018-09-03T04:40:38.510Z,994.53
2018-09-03T04:41:48.641Z,994.55
2018-09-03T04:42:58.509Z,994.5
2018-09-03T04:44:08.682Z,994.54
2018-09-03T04:45:18.540Z,994.6
2018-09-03T04:46:28.701Z,994.58
2018-09-03T04:47:38.553Z,994.54
2018-09-03T04:48:48.689Z,994.54
2018-09-03T04:49:58.045Z,994.57
2018-09-03T04:51:07.905Z,994.53
2018-09-03T04:52:18.028Z,994.48
2018-09-03T04:53:27.884Z,994.49
2018-09-03T04:54:37.263Z,994.45
2018-09-03T04:55:47.602Z,994.49
2018-09-03T04:56:57.737Z,994.5
2018-09-03T04:58:07.865Z,994.52
2018-09-03T04:59:18.038Z,994.51
2018-09-03T05:00:28.219Z,994.51
2018-09-03T05:01:38.416Z,994.44
2018-09-03T05:02:48.719Z,994.48
2018-09-03T05:03:58.310Z,994.49
2018-09-03T05:05:08.257Z,994.5
2018-09-03T05:06:18.105Z,994.48
2018-09-03T05:07:27.735Z,994.46
2018-09-03T05:08:37.859Z,994.46
2018-09-03T05:09:47.715Z,994.42
2018-09-03T05:10:57.574Z,994.45
2018-09-03T05:12:07.432Z,994.4
2018-09-03T05:13:17.339Z,994.41
2018-09-03T05:14:27.193Z,994.41
2018-09-03T05:15:37.043Z,994.39
2018-09-03T05:16:46.900Z,994.4
2018-09-03T05:17:56.758Z,994.4
2018-09-03T05:19:06.393Z,994.42
2018-09-03T05:20:16.530Z,994.43
2018-09-03T05:21:26.653Z,994.42
2018-09-03T05:22:36.230Z,994.45
2018-09-03T05:23:46.362Z,994.48
2018-09-03T05:24:56.537Z,994.49
2018-09-03T05:26:06.113Z,994.54
2018-09-03T05:27:15.978Z,994.51
2018-09-03T05:28:25.830Z,994.54
2018-09-03T05:29:35.686Z,994.54
2018-09-03T05:30:45.638Z,994.56
2018-09-03T05:31:55.523Z,994.51
2018-09-03T05:33:05.659Z,994.51
2018-09-03T05:34:15.236Z,994.5
2018-09-03T05:35:25.096Z,994.52
2018-09-03T05:36:34.738Z,994.53
2018-09-03T05:37:44.591Z,994.55
2018-09-03T05:38:54.444Z,994.56
2018-09-03T05:40:04.302Z,994.57
2018-09-03T05:41:14.167Z,994.59
2018-09-03T05:42:24.342Z,994.62
2018-09-03T05:43:34.467Z,994.6
2018-09-03T05:44:45.608Z,994.61
2018-09-03T05:45:55.182Z,994.62
2018-09-03T05:47:05.034Z,994.62
2018-09-03T05:48:14.935Z,994.61
2018-09-03T05:49:25.066Z,994.61
2018-09-03T05:50:34.924Z,994.6
2018-09-03T05:51:45.601Z,994.61
2018-09-03T05:52:55.177Z,994.65
2018-09-03T05:54:05.082Z,994.64
2018-09-03T05:55:15.213Z,994.62
2018-09-03T05:56:25.120Z,994.63
2018-09-03T05:57:34.973Z,994.66
2018-09-03T05:58:45.099Z,994.67
2018-09-03T05:59:54.995Z,994.65
2018-09-03T06:01:05.129Z,994.62
2018-09-03T06:02:14.991Z,994.65
2018-09-03T06:03:24.572Z,994.67
2018-09-03T06:04:34.429Z,994.65
2018-09-03T06:05:44.741Z,994.68
2018-09-03T06:06:54.362Z,994.7
2018-09-03T06:08:04.496Z,994.69
2018-09-03T06:09:14.345Z,994.75
2018-09-03T06:10:24.196Z,994.75
2018-09-03T06:11:34.346Z,994.75
2018-09-03T06:12:44.203Z,994.74
2018-09-03T06:13:53.238Z,994.74
2018-09-03T06:15:03.094Z,994.75
2018-09-03T06:16:13.219Z,994.76
2018-09-03T06:17:22.888Z,994.77
2018-09-03T06:18:32.462Z,994.74
2018-09-03T06:19:42.375Z,994.74
2018-09-03T06:20:52.243Z,994.75
2018-09-03T06:22:01.818Z,994.76
2018-09-03T06:23:11.449Z,994.72
2018-09-03T06:24:21.579Z,994.72
2018-09-03T06:25:31.706Z,994.75
2018-09-03T06:26:41.852Z,994.78
2018-09-03T06:27:51.613Z,994.77
2018-09-03T06:29:01.790Z,994.73
2018-09-03T06:30:11.642Z,994.75
2018-09-03T06:31:21.526Z,994.72
2018-09-03T06:32:31.380Z,994.72
2018-09-03T06:33:41.243Z,994.77
2018-09-03T06:34:51.424Z,994.74
2018-09-03T06:36:01.083Z,994.73
2018-09-03T06:37:10.951Z,994.71
2018-09-03T06:38:21.247Z,994.76
2018-09-03T06:39:31.391Z,994.72
2018-09-03T06:40:41.870Z,994.73
2018-09-03T06:41:52.257Z,994.73
2018-09-03T06:43:02.112Z,994.77
2018-09-03T06:44:11.963Z,994.8
2018-09-03T06:45:21.819Z,994.72
2018-09-03T06:46:31.997Z,994.74
2018-09-03T06:47:42.126Z,994.72
2018-09-03T06:48:52.256Z,994.75
2018-09-03T06:50:02.108Z,994.72
2018-09-03T06:51:11.963Z,994.68
2018-09-03T06:52:21.865Z,994.7
2018-09-03T06:53:32.025Z,994.69
2018-09-03T06:54:42.039Z,994.72
2018-09-03T06:55:52.164Z,994.72
2018-09-03T06:57:02.017Z,994.68
2018-09-03T06:58:11.385Z,994.66
2018-09-03T06:59:21.236Z,994.67
2018-09-03T07:00:30.843Z,994.65
2018-09-03T07:01:40.974Z,994.65
2018-09-03T07:02:50.827Z,994.68
2018-09-03T07:04:00.738Z,994.68
2018-09-03T07:05:10.592Z,994.7
2018-09-03T07:06:20.714Z,994.65
2018-09-03T07:07:30.840Z,994.69
2018-09-03T07:08:40.694Z,994.73
2018-09-03T07:09:50.881Z,994.7
2018-09-03T07:11:00.462Z,994.69
2018-09-03T07:12:10.604Z,994.71
2018-09-03T07:13:20.730Z,994.72
2018-09-03T07:14:30.863Z,994.71
2018-09-03T07:15:40.819Z,994.76
2018-09-03T07:16:50.948Z,994.75
2018-09-03T07:18:01.075Z,994.76
2018-09-03T07:19:11.213Z,994.73
2018-09-03T07:20:21.337Z,994.77
2018-09-03T07:21:31.511Z,994.75
2018-09-03T07:22:41.638Z,994.74
2018-09-03T07:23:51.494Z,994.72
2018-09-03T07:25:01.349Z,994.8
2018-09-03T07:26:11.486Z,994.76
2018-09-03T07:27:21.668Z,994.72
2018-09-03T07:28:31.521Z,994.73
2018-09-03T07:29:41.478Z,994.76
2018-09-03T07:30:51.608Z,994.71
2018-09-03T07:32:01.735Z,994.69
2018-09-03T07:33:11.909Z,994.72
2018-09-03T07:34:21.487Z,994.7
2018-09-03T07:35:31.650Z,994.68
2018-09-03T07:36:41.661Z,994.71
2018-09-03T07:37:51.520Z,994.71
2018-09-03T07:39:01.704Z,994.7
2018-09-03T07:40:11.283Z,994.69
2018-09-03T07:41:21.407Z,994.71
2018-09-03T07:42:30.980Z,994.67
2018-09-03T07:43:41.117Z,994.66
2018-09-03T07:44:51.301Z,994.63
2018-09-03T07:46:01.429Z,994.62
2018-09-03T07:47:11.281Z,994.57
2018-09-03T07:48:21.404Z,994.6
2018-09-03T07:49:31.259Z,994.61
2018-09-03T07:50:41.163Z,994.63
2018-09-03T07:51:51.356Z,994.66
2018-09-03T07:53:01.208Z,994.64
2018-09-03T07:54:11.067Z,994.63
2018-09-03T07:55:20.920Z,994.62
2018-09-03T07:56:30.777Z,994.64
2018-09-03T07:57:40.911Z,994.62
2018-09-03T07:58:51.054Z,994.64
2018-09-03T08:00:01.237Z,994.6
2018-09-03T08:01:11.148Z,994.62
2018-09-03T08:02:21.506Z,994.61
2018-09-03T08:03:31.633Z,994.62
2018-09-03T08:04:41.490Z,994.6
2018-09-03T08:05:51.618Z,994.57
2018-09-03T08:07:01.200Z,994.63
2018-09-03T08:08:11.336Z,994.61
2018-09-03T08:09:21.190Z,994.63
2018-09-03T08:10:31.331Z,994.67
2018-09-03T08:11:40.912Z,994.61
2018-09-03T08:12:50.801Z,994.68
2018-09-03T08:14:00.979Z,994.64
2018-09-03T08:15:10.829Z,994.61
2018-09-03T08:16:20.404Z,994.63
2018-09-03T08:17:30.254Z,994.62
2018-09-03T08:18:40.116Z,994.62
2018-09-03T08:19:50.267Z,994.65
2018-09-03T08:20:59.951Z,994.6
2018-09-03T08:22:09.539Z,994.59
2018-09-03T08:23:19.661Z,994.63
2018-09-03T08:24:29.240Z,994.61
2018-09-03T08:25:38.818Z,994.59
2018-09-03T08:26:48.957Z,994.61
2018-09-03T08:27:59.091Z,994.58
2018-09-03T08:29:08.672Z,994.6
2018-09-03T08:30:18.546Z,994.61
2018-09-03T08:31:28.461Z,994.64
2018-09-03T08:32:38.314Z,994.6
2018-09-03T08:33:47.894Z,994.64
2018-09-03T08:34:57.477Z,994.63
2018-09-03T08:36:07.332Z,994.66
2018-09-03T08:37:17.459Z,994.66
2018-09-03T08:38:27.310Z,994.65
2018-09-03T08:39:37.448Z,994.63
2018-09-03T08:40:47.347Z,994.64
2018-09-03T08:41:57.214Z,994.63
2018-09-03T08:43:06.515Z,994.63
2018-09-03T08:44:16.368Z,994.63
2018-09-03T08:45:25.950Z,994.66
2018-09-03T08:46:36.086Z,994.66
2018-09-03T08:47:46.220Z,994.68
2018-09-03T08:48:56.355Z,994.68
2018-09-03T08:50:06.207Z,994.63
2018-09-03T08:51:16.157Z,994.68
2018-09-03T08:52:26.294Z,994.65
2018-09-03T08:53:36.153Z,994.67
2018-09-03T08:54:46.283Z,994.64
2018-09-03T08:55:56.415Z,994.69
2018-09-03T08:57:06.274Z,994.63
2018-09-03T08:58:16.130Z,994.66
2018-09-03T08:59:26.261Z,994.6
2018-09-03T09:00:35.839Z,994.57
2018-09-03T09:01:45.695Z,994.58
2018-09-03T09:02:55.833Z,994.58
2018-09-03T09:04:05.687Z,994.55
2018-09-03T09:05:15.547Z,994.56
2018-09-03T09:06:25.451Z,994.55
2018-09-03T09:07:35.309Z,994.56
2018-09-03T09:08:44.890Z,994.55
2018-09-03T09:09:55.016Z,994.6
2018-09-03T09:11:05.151Z,994.57
2018-09-03T09:12:15.284Z,994.56
2018-09-03T09:13:25.413Z,994.6
2018-09-03T09:14:35.552Z,994.57
2018-09-03T09:15:45.695Z,994.6
2018-09-03T09:16:55.549Z,994.6
2018-09-03T09:18:05.132Z,994.56
2018-09-03T09:19:15.261Z,994.56
2018-09-03T09:20:24.836Z,994.55
2018-09-03T09:21:34.696Z,994.54
2018-09-03T09:22:44.824Z,994.51
2018-09-03T09:23:54.674Z,994.51
2018-09-03T09:25:04.882Z,994.49
2018-09-03T09:26:15.256Z,994.5
2018-09-03T09:27:25.387Z,994.47
2018-09-03T09:28:35.526Z,994.48
2018-09-03T09:29:45.105Z,994.49
2018-09-03T09:30:54.968Z,994.49
2018-09-03T09:32:05.093Z,994.49
2018-09-03T09:33:15.237Z,994.47
2018-09-03T09:34:25.094Z,994.45
2018-09-03T09:35:34.395Z,994.45
2018-09-03T09:36:44.665Z,994.41
2018-09-03T09:37:54.418Z,994.43
2018-09-03T09:39:04.277Z,994.45
2018-09-03T09:40:14.128Z,994.45
2018-09-03T09:41:24.265Z,994.41
2018-09-03T09:42:34.124Z,994.42
2018-09-03T09:43:43.982Z,994.41
2018-09-03T09:44:53.838Z,994.46
2018-09-03T09:46:03.980Z,994.46
2018-09-03T09:47:13.831Z,994.43
2018-09-03T09:48:23.976Z,994.43
2018-09-03T09:49:33.831Z,994.4
2018-09-03T09:50:43.984Z,994.41
2018-09-03T09:51:54.127Z,994.38
2018-09-03T09:53:03.983Z,994.4
2018-09-03T09:54:13.837Z,994.4
2018-09-03T09:55:23.689Z,994.39
2018-09-03T09:56:33.819Z,994.43
2018-09-03T09:57:43.957Z,994.39
2018-09-03T09:58:53.811Z,994.39
2018-09-03T10:00:03.665Z,994.36
2018-09-03T10:01:13.257Z,994.35
2018-09-03T10:02:23.113Z,994.4
2018-09-03T10:03:32.966Z,994.37
2018-09-03T10:04:42.816Z,994.43
2018-09-03T10:05:52.680Z,994.39
2018-09-03T10:07:01.989Z,994.36
2018-09-03T10:08:11.308Z,994.35
2018-09-03T10:09:21.157Z,994.37
2018-09-03T10:10:31.015Z,994.35
2018-09-03T10:11:40.606Z,994.26
2018-09-03T10:12:50.736Z,994.26
2018-09-03T10:14:00.315Z,994.24
2018-09-03T10:15:10.446Z,994.32
2018-09-03T10:16:20.581Z,994.32
2018-09-03T10:17:30.159Z,994.27
2018-09-03T10:18:40.295Z,994.25
2018-09-03T10:19:50.148Z,994.23
2018-09-03T10:20:59.892Z,994.23
2018-09-03T10:22:09.990Z,994.2
2018-09-03T10:23:19.844Z,994.2
2018-09-03T10:24:28.875Z,994.2
2018-09-03T10:25:38.467Z,994.24
2018-09-03T10:26:48.596Z,994.23
2018-09-03T10:27:58.458Z,994.21
2018-09-03T10:29:08.311Z,994.21
2018-09-03T10:30:18.440Z,994.2
2018-09-03T10:31:28.018Z,994.18
2018-09-03T10:32:38.173Z,994.2
2018-09-03T10:33:48.358Z,994.19
2018-09-03T10:34:58.209Z,994.15
2018-09-03T10:36:08.065Z,994.12
2018-09-03T10:37:17.918Z,994.14
2018-09-03T10:38:27.510Z,994.15
2018-09-03T10:39:37.650Z,994.09
2018-09-03T10:40:47.504Z,994.08
2018-09-03T10:41:57.364Z,994.11
2018-09-03T10:43:07.497Z,994.07
2018-09-03T10:44:17.355Z,994.07
2018-09-03T10:45:26.939Z,994.05
2018-09-03T10:46:37.070Z,994.02
2018-09-03T10:47:46.927Z,994.02
2018-09-03T10:48:57.058Z,994.07
2018-09-03T10:50:07.184Z,994.06
2018-09-03T10:51:17.326Z,994.02
2018-09-03T10:52:26.914Z,994.01
2018-09-03T10:53:37.045Z,994
2018-09-03T10:54:46.631Z,993.94
2018-09-03T10:55:56.483Z,993.95
2018-09-03T10:57:06.120Z,993.92
2018-09-03T10:58:15.978Z,993.93
2018-09-03T10:59:26.109Z,993.9
2018-09-03T11:00:36.245Z,993.89
2018-09-03T11:01:46.371Z,993.87
2018-09-03T11:02:56.237Z,993.85
2018-09-03T11:04:06.105Z,993.88
2018-09-03T11:05:16.282Z,993.86
2018-09-03T11:06:26.510Z,993.87
2018-09-03T11:07:36.369Z,993.82
2018-09-03T11:08:46.499Z,993.83
2018-09-03T11:09:56.352Z,993.82
2018-09-03T11:11:06.214Z,993.87
2018-09-03T11:12:16.069Z,993.86
2018-09-03T11:13:25.924Z,993.78
2018-09-03T11:14:36.057Z,993.79
2018-09-03T11:15:46.181Z,993.8
2018-09-03T11:16:56.033Z,993.86
2018-09-03T11:18:06.160Z,993.89
2018-09-03T11:19:15.751Z,993.83
2018-09-03T11:20:25.061Z,993.82
2018-09-03T11:21:35.437Z,993.8
2018-09-03T11:22:46.500Z,993.76
2018-09-03T11:23:56.099Z,993.81
2018-09-03T11:25:06.307Z,993.74
2018-09-03T11:26:15.893Z,993.72
2018-09-03T11:27:25.751Z,993.66
2018-09-03T11:28:35.618Z,993.67
2018-09-03T11:29:45.765Z,993.66
2018-09-03T11:30:55.639Z,993.66
2018-09-03T11:32:05.879Z,993.6
2018-09-03T11:33:16.030Z,993.58
2018-09-03T11:34:25.892Z,993.58
2018-09-03T11:35:35.762Z,993.54
2018-09-03T11:36:45.433Z,993.55
2018-09-03T11:37:55.302Z,993.6
2018-09-03T11:39:05.168Z,993.6
2018-09-03T11:40:15.313Z,993.61
2018-09-03T11:41:25.182Z,993.63
2018-09-03T11:42:35.046Z,993.57
2018-09-03T11:43:45.237Z,993.56
2018-09-03T11:44:55.378Z,993.51
2018-09-03T11:46:05.248Z,993.48
2018-09-03T11:47:14.637Z,993.57
2018-09-03T11:48:24.590Z,993.53
2018-09-03T11:49:34.508Z,993.55
2018-09-03T11:50:44.394Z,993.57
2018-09-03T11:51:54.538Z,993.54
2018-09-03T11:53:04.135Z,993.48
2018-09-03T11:54:14.288Z,993.49
2018-09-03T11:55:23.945Z,993.48
2018-09-03T11:56:33.554Z,993.46
2018-09-03T11:57:43.706Z,993.48
2018-09-03T11:58:53.851Z,993.55
2018-09-03T12:00:03.447Z,993.48
2018-09-03T12:01:13.048Z,993.46
2018-09-03T12:02:22.367Z,993.43
2018-09-03T12:03:32.248Z,993.45
2018-09-03T12:04:42.396Z,993.43
2018-09-03T12:05:52.258Z,993.41
2018-09-03T12:07:02.413Z,993.32
2018-09-03T12:08:12.555Z,993.34
2018-09-03T12:09:21.869Z,993.29
2018-09-03T12:10:31.466Z,993.33
2018-09-03T12:11:41.333Z,993.32
2018-09-03T12:12:51.307Z,993.31
2018-09-03T12:14:01.457Z,993.3
2018-09-03T12:15:11.597Z,993.4
2018-09-03T12:16:21.743Z,993.25
2018-09-03T12:17:31.885Z,993.28
2018-09-03T12:18:42.085Z,993.3
2018-09-03T12:19:52.227Z,993.24
2018-09-03T12:21:02.123Z,993.27
2018-09-03T12:22:12.683Z,993.25
2018-09-03T12:23:22.830Z,993.26
2018-09-03T12:24:32.481Z,993.32
2018-09-03T12:25:42.629Z,993.28
2018-09-03T12:26:52.776Z,993.23
2018-09-03T12:28:02.646Z,993.23
2018-09-03T12:29:12.240Z,993.22
2018-09-03T12:30:22.441Z,993.23
2018-09-03T12:31:32.606Z,993.21
2018-09-03T12:32:42.792Z,993.23
2018-09-03T12:33:52.660Z,993.23
2018-09-03T12:35:02.812Z,993.17
2018-09-03T12:36:12.734Z,993.11
2018-09-03T12:37:22.882Z,993.18
2018-09-03T12:38:32.479Z,993.18
2018-09-03T12:39:42.368Z,993.2
2018-09-03T12:40:52.235Z,993.15
2018-09-03T12:42:02.433Z,993.14
2018-09-03T12:43:11.754Z,993.2
2018-09-03T12:44:21.906Z,993.15
2018-09-03T12:45:31.778Z,993.09
2018-09-03T12:46:41.377Z,993.05
2018-09-03T12:47:51.257Z,993.03
2018-09-03T12:49:01.474Z,993
2018-09-03T12:50:11.664Z,992.97
2018-09-03T12:51:22.153Z,993
2018-09-03T12:52:32.082Z,993.04
2018-09-03T12:53:42.001Z,992.99
2018-09-03T12:54:51.324Z,993.07
2018-09-03T12:56:01.196Z,992.97
2018-09-03T12:57:10.797Z,992.99
2018-09-03T12:58:20.949Z,993.01
2018-09-03T12:59:31.118Z,992.97
2018-09-03T13:00:41.263Z,992.98
2018-09-03T13:01:51.649Z,992.96
2018-09-03T13:03:01.635Z,992.92
2018-09-03T13:04:11.890Z,992.91
2018-09-03T13:05:22.016Z,992.93
2018-09-03T13:06:32.179Z,992.88
2018-09-03T13:07:42.056Z,992.8
2018-09-03T13:08:51.937Z,992.77
2018-09-03T13:10:01.815Z,992.77
2018-09-03T13:11:11.787Z,992.75
2018-09-03T13:12:21.660Z,992.77
2018-09-03T13:13:31.872Z,992.77
2018-09-03T13:14:42.039Z,992.73
2018-09-03T13:15:51.366Z,992.76
2018-09-03T13:17:01.293Z,992.73
2018-09-03T13:18:11.232Z,992.8
2018-09-03T13:19:21.099Z,992.81
2018-09-03T13:20:30.975Z,992.81
2018-09-03T13:21:41.125Z,992.83
2018-09-03T13:22:51.047Z,992.78
2018-09-03T13:24:01.198Z,992.76
2018-09-03T13:25:10.800Z,992.78
2018-09-03T13:26:20.958Z,992.74
2018-09-03T13:27:31.102Z,992.71
2018-09-03T13:28:41.084Z,992.71
2018-09-03T13:29:50.959Z,992.69
2018-09-03T13:31:01.113Z,992.65
2018-09-03T13:32:10.989Z,992.65
2018-09-03T13:33:20.864Z,992.66
2018-09-03T13:34:30.478Z,992.61
2018-09-03T13:35:40.622Z,992.6
2018-09-03T13:36:50.771Z,992.55
2018-09-03T13:38:00.926Z,992.53
2018-09-03T13:39:10.806Z,992.54
2018-09-03T13:40:21.006Z,992.53
2018-09-03T13:41:31.186Z,992.47
2018-09-03T13:42:41.406Z,992.48
2018-09-03T13:43:51.303Z,992.43
2018-09-03T13:45:01.590Z,992.45
2018-09-03T13:46:11.467Z,992.44
2018-09-03T13:47:21.343Z,992.41
2018-09-03T13:48:31.488Z,992.43
2018-09-03T13:49:41.364Z,992.47
2018-09-03T13:50:51.258Z,992.38
2018-09-03T13:52:01.182Z,992.46
2018-09-03T13:53:10.788Z,992.4
2018-09-03T13:54:20.947Z,992.29
2018-09-03T13:55:31.107Z,992.31
2018-09-03T13:56:41.011Z,992.37
2018-09-03T13:57:51.169Z,992.27
2018-09-03T13:59:01.316Z,992.21
2018-09-03T14:00:10.919Z,992.1
2018-09-03T14:01:20.800Z,992.02
2018-09-03T14:02:30.411Z,992.04
2018-09-03T14:03:40.292Z,992.04
2018-09-03T14:04:50.240Z,992.04
2018-09-03T14:06:00.446Z,992.09
2018-09-03T14:07:10.605Z,992.01
2018-09-03T14:08:20.757Z,992.33
2018-09-03T14:09:30.981Z,992.35
2018-09-03T14:10:41.333Z,992.33
2018-09-03T14:11:51.477Z,992.35
2018-09-03T14:13:01.239Z,992.4
2018-09-03T14:14:11.093Z,992.43
2018-09-03T14:15:21.344Z,992.28
2018-09-03T14:16:31.502Z,992.25
2018-09-03T14:17:41.669Z,992.24
2018-09-03T14:18:51.537Z,992.22
2018-09-03T14:20:01.479Z,992.15
2018-09-03T14:21:11.683Z,992.09
2018-09-03T14:22:21.345Z,992.14
2018-09-03T14:23:31.398Z,992.15
2018-09-03T14:24:41.570Z,992.09
2018-09-03T14:25:51.441Z,992.06
2018-09-03T14:27:01.421Z,992.09
2018-09-03T14:28:11.330Z,992.09
2018-09-03T14:29:21.541Z,992.12
2018-09-03T14:30:31.689Z,992.04
2018-09-03T14:31:41.582Z,992.08
2018-09-03T14:32:51.739Z,992.08
2018-09-03T14:34:01.894Z,992.09
2018-09-03T14:35:11.497Z,992.1
2018-09-03T14:36:21.663Z,992.21